Batsfjord, Batsfjord Airport (ENBS)

NameBatsfjord Airport
CityBatsfjord
CountryNorway
ICAOENBS
IATABJF
Altitude149 m
CoordinatesGoogle Map
Live Air TrafficLiveATC.net
METARENBS 241750Z 34009KT 9999 SCT017 BKN030 09/05 Q1022
2019-06-24 17:50:00 Wind: North-Northwest (340°) 4.63 m/s - Visibility: > 10000 m - Temperature: 9 °C - Dew point: 5 °C - Humidity: 76.3% - Pressure: 1022 hPa

Sorry, no flights used the airport in this database.